Time;durP1;ratioP1;P1;durP2;ratioP2;P2;SDS_P1;SDS_P2;PMS_P1;PMS_P2;Temp;Humidity;BMP_temperature;BMP_pressure;BME280_temperature;BME280_humidity;BME280_pressure;Samples;Min_cycle;Max_cycle;Signal;HPM_P1;HPM_P2
2024/04/01 00:00:30;;;;;;;3.70;1.17;;;10.70;99.90;;;;;;5052289;28;20219;-63
2024/04/01 00:02:55;;;;;;;4.60;1.70;;;10.60;99.90;;;;;;5052547;28;20182;-63
2024/04/01 00:05:21;;;;;;;2.10;1.40;;;10.70;99.90;;;;;;5052568;28;20190;-62
2024/04/01 00:07:49;;;;;;;3.33;1.40;;;10.70;99.90;;;;;;5052587;28;20166;-63
2024/04/01 00:10:15;;;;;;;1.80;1.50;;;10.70;99.90;;;;;;5052381;28;20178;-64
2024/04/01 00:12:40;;;;;;;4.23;2.57;;;10.80;99.90;;;;;;5052351;28;20452;-63
2024/04/01 00:15:06;;;;;;;2.20;2.10;;;10.70;99.90;;;;;;5052459;28;20438;-63
2024/04/01 00:17:32;;;;;;;7.77;2.00;;;10.70;99.90;;;;;;5052604;28;20216;-63
2024/04/01 00:19:57;;;;;;;3.13;1.50;;;10.70;99.70;;;;;;5052131;28;20209;-63
2024/04/01 00:22:23;;;;;;;1.60;1.23;;;10.80;99.60;;;;;;5052398;28;20201;-62
2024/04/01 00:24:49;;;;;;;2.40;1.47;;;10.80;99.40;;;;;;5052271;28;20229;-63
2024/04/01 00:27:15;;;;;;;1.65;1.52;;;10.90;99.20;;;;;;5052148;28;20681;-63
2024/04/01 00:29:40;;;;;;;4.07;1.20;;;10.80;99.20;;;;;;5052056;28;20253;-63
2024/04/01 00:32:06;;;;;;;3.90;1.27;;;10.80;99.00;;;;;;5052698;28;20573;-63
2024/04/01 00:34:32;;;;;;;1.90;1.27;;;10.80;98.80;;;;;;5052342;28;20186;-63
2024/04/01 00:36:58;;;;;;;1.27;1.00;;;10.80;98.80;;;;;;5051804;28;20401;-63
2024/04/01 00:39:23;;;;;;;3.30;3.10;;;10.90;98.90;;;;;;5051775;28;20171;-63
2024/04/01 00:41:49;;;;;;;2.97;1.10;;;10.90;98.70;;;;;;5051695;28;20166;-63
2024/04/01 00:44:14;;;;;;;4.10;1.67;;;10.70;99.90;;;;;;5051690;28;20218;-63
2024/04/01 00:46:40;;;;;;;2.57;1.33;;;10.90;98.80;;;;;;5051798;28;20193;-63
2024/04/01 00:49:06;;;;;;;5.93;1.60;;;10.80;98.80;;;;;;5051620;28;20170;-63
2024/04/01 00:51:32;;;;;;;4.30;1.80;;;10.90;98.50;;;;;;5051454;28;20404;-63
2024/04/01 00:53:59;;;;;;;1.67;1.07;;;11.00;98.60;;;;;;5051753;28;20531;-63
2024/04/01 00:56:26;;;;;;;2.53;1.00;;;10.90;98.40;;;;;;5051770;28;20405;-63
2024/04/01 00:58:53;;;;;;;1.10;1.00;;;10.90;98.40;;;;;;5051646;28;20407;-63
2024/04/01 01:01:19;;;;;;;2.25;0.90;;;10.90;98.30;;;;;;5050477;28;20174;-63
2024/04/01 01:03:45;;;;;;;2.80;1.33;;;10.90;99.90;;;;;;5051325;28;20206;-63
2024/04/01 01:06:15;;;;;;;1.00;1.00;;;10.90;98.20;;;;;;5051252;28;20408;-63
2024/04/01 01:08:43;;;;;;;5.07;1.27;;;10.90;98.30;;;;;;5051750;28;20695;-63
2024/04/01 01:11:09;;;;;;;1.33;1.20;;;10.90;98.40;;;;;;5052218;28;20431;-63
2024/04/01 01:13:35;;;;;;;1.63;1.20;;;10.90;98.70;;;;;;5051644;28;20452;-63
2024/04/01 01:16:00;;;;;;;1.83;0.97;;;10.90;98.80;;;;;;5051606;28;20789;-63
2024/04/01 01:18:26;;;;;;;1.83;0.93;;;10.80;99.20;;;;;;5051143;28;20628;-64
2024/04/01 01:20:52;;;;;;;1.37;0.87;;;10.80;99.00;;;;;;5051327;28;20491;-63
2024/04/01 01:23:17;;;;;;;1.77;0.93;;;10.90;99.90;;;;;;5051307;28;20174;-63
2024/04/01 01:25:43;;;;;;;3.20;0.90;;;10.80;99.20;;;;;;5051401;28;20544;-63
2024/04/01 01:28:09;;;;;;;1.77;1.10;;;10.70;99.20;;;;;;5051119;28;20228;-63
2024/04/01 01:30:35;;;;;;;3.33;1.43;;;10.70;99.30;;;;;;5051069;28;20201;-63
2024/04/01 01:33:03;;;;;;;1.60;1.50;;;10.20;99.90;;;;;;5051583;28;20200;-63
2024/04/01 01:35:29;;;;;;;3.42;1.55;;;10.40;99.90;;;;;;5051569;28;20178;-62
2024/04/01 01:37:55;;;;;;;4.47;0.90;;;10.30;99.90;;;;;;5051427;28;20534;-63
2024/04/01 01:40:21;;;;;;;2.13;1.33;;;10.40;99.90;;;;;;5051097;28;20174;-63
2024/04/01 01:42:48;;;;;;;3.47;1.30;;;10.50;99.90;;;;;;5051047;28;20413;-63
2024/04/01 01:45:14;;;;;;;1.38;1.20;;;10.30;99.90;;;;;;5051042;28;20766;-64
2024/04/01 01:47:40;;;;;;;3.40;0.90;;;10.30;99.90;;;;;;5051337;28;20276;-63
2024/04/01 01:50:07;;;;;;;1.20;1.10;;;10.40;99.90;;;;;;5051071;28;20594;-63
2024/04/01 01:52:33;;;;;;;5.65;1.70;;;10.40;99.90;;;;;;5051135;28;20193;-63
2024/04/01 01:54:59;;;;;;;1.50;1.15;;;10.40;99.90;;;;;;5051650;28;20186;-63
2024/04/01 01:57:27;;;;;;;2.38;1.63;;;10.30;99.90;;;;;;5051233;28;20711;-63
2024/04/01 01:59:53;;;;;;;3.45;1.33;;;10.30;99.90;;;;;;5051022;28;20174;-63
2024/04/01 02:02:18;;;;;;;2.57;1.13;;;10.30;99.90;;;;;;5051175;28;20179;-62
2024/04/01 02:04:47;;;;;;;3.53;1.50;;;10.30;99.90;;;;;;5050992;28;20239;-63
2024/04/01 02:07:12;;;;;;;1.50;1.27;;;10.30;99.90;;;;;;5051043;28;20769;-63
2024/04/01 02:09:38;;;;;;;5.20;1.80;;;10.30;99.90;;;;;;5050861;28;20210;-63
2024/04/01 02:12:07;;;;;;;5.40;1.60;;;10.30;99.90;;;;;;5051110;28;20551;-63
2024/04/01 02:14:39;;;;;;;1.45;0.88;;;10.40;99.90;;;;;;5050975;28;20686;-63
2024/04/01 02:17:07;;;;;;;1.88;1.20;;;10.40;99.90;;;;;;5052365;28;20247;-63
2024/04/01 02:19:33;;;;;;;2.95;1.10;;;10.20;99.90;;;;;;5054453;28;20206;-62
2024/04/01 02:21:59;;;;;;;1.50;1.20;;;10.20;99.90;;;;;;5054685;28;20209;-63
2024/04/01 02:24:26;;;;;;;2.80;1.50;;;10.30;99.90;;;;;;5054536;28;20673;-63
2024/04/01 02:26:52;;;;;;;7.15;2.05;;;10.40;99.90;;;;;;5054841;28;20415;-62
2024/04/01 02:29:18;;;;;;;6.97;2.08;;;10.40;99.90;;;;;;5054475;28;20626;-63
2024/04/01 02:31:43;;;;;;;2.50;1.10;;;10.40;99.90;;;;;;5055465;28;20212;-62
2024/04/01 02:34:09;;;;;;;2.50;1.07;;;10.30;99.90;;;;;;5054326;28;20209;-63
2024/04/01 02:36:36;;;;;;;2.70;1.30;;;10.30;99.90;;;;;;5054355;28;20166;-63
2024/04/01 02:39:02;;;;;;;1.65;0.70;;;10.30;99.90;;;;;;5054598;28;20158;-63
2024/04/01 02:41:28;;;;;;;1.38;1.27;;;10.20;99.90;;;;;;5054243;28;20705;-63
2024/04/01 02:43:54;;;;;;;1.95;1.20;;;10.10;99.90;;;;;;5054206;28;20218;-63
2024/04/01 02:46:20;;;;;;;1.20;0.93;;;10.00;99.90;;;;;;5054126;28;20174;-63
2024/04/01 02:48:45;;;;;;;1.83;1.73;;;10.00;99.90;;;;;;5054045;28;20833;-63
2024/04/01 02:51:11;;;;;;;1.57;0.97;;;9.90;99.90;;;;;;5053981;28;20170;-63
2024/04/01 02:53:37;;;;;;;1.50;1.23;;;9.80;99.90;;;;;;5053907;28;20212;-63
2024/04/01 02:56:02;;;;;;;1.87;1.30;;;9.60;99.90;;;;;;5054100;28;20484;-63
2024/04/01 02:58:31;;;;;;;4.03;1.83;;;9.40;99.90;;;;;;5053991;28;20170;-63
2024/04/01 03:01:06;;;;;;;3.42;2.38;;;9.30;99.90;;;;;;5053762;28;20185;-63
2024/04/01 03:03:31;;;;;;;2.17;1.98;;;9.10;99.90;;;;;;5053937;28;20204;-63
2024/04/01 03:05:57;;;;;;;6.20;2.73;;;9.20;99.90;;;;;;5053712;28;20178;-63
2024/04/01 03:08:23;;;;;;;4.53;2.72;;;9.30;99.90;;;;;;5053656;28;20217;-63
2024/04/01 03:10:56;;;;;;;2.30;2.10;;;9.40;99.90;;;;;;5053980;28;20594;-63
2024/04/01 03:13:22;;;;;;;3.35;3.05;;;9.50;99.90;;;;;;5053625;28;20672;-64
2024/04/01 03:15:47;;;;;;;2.23;2.03;;;9.50;99.90;;;;;;5053448;28;20210;-63
2024/04/01 03:18:13;;;;;;;2.87;1.97;;;9.70;99.90;;;;;;5053524;28;20173;-63
2024/04/01 03:20:40;;;;;;;6.10;1.97;;;9.90;99.90;;;;;;5053299;28;20182;-63
2024/04/01 03:23:06;;;;;;;5.80;3.00;;;10.20;99.90;;;;;;5053779;28;20236;-63
2024/04/01 03:25:32;;;;;;;5.15;3.42;;;10.00;99.90;;;;;;5053464;28;20611;-63
2024/04/01 03:27:58;;;;;;;11.30;6.05;;;10.10;99.90;;;;;;5052557;28;20178;-63
2024/04/01 03:30:24;;;;;;;5.90;4.47;;;10.10;99.90;;;;;;5053108;28;20228;-63
2024/04/01 03:32:49;;;;;;;6.70;3.30;;;10.20;99.90;;;;;;5053234;28;20229;-63
2024/04/01 03:35:16;;;;;;;3.63;2.90;;;10.30;99.90;;;;;;5053152;28;20210;-63
2024/04/01 03:37:41;;;;;;;3.85;3.08;;;10.40;99.90;;;;;;5053391;28;20178;-63
2024/04/01 03:40:11;;;;;;;5.07;4.03;;;10.30;99.90;;;;;;5052988;28;20341;-63
2024/04/01 03:42:36;;;;;;;7.03;4.10;;;10.30;99.90;;;;;;5053655;28;20181;-63
2024/04/01 03:45:06;;;;;;;10.13;6.53;;;10.30;99.90;;;;;;5052953;28;20214;-63
2024/04/01 03:47:34;;;;;;;9.02;5.43;;;10.30;99.90;;;;;;5053315;28;20186;-63
2024/04/01 03:50:00;;;;;;;8.30;6.03;;;10.30;99.90;;;;;;5052869;28;20175;-63
2024/04/01 03:52:26;;;;;;;10.53;5.30;;;10.40;99.90;;;;;;5053680;28;20455;-63
2024/04/01 03:54:51;;;;;;;7.20;5.33;;;10.40;99.90;;;;;;5052796;28;20559;-63
2024/04/01 03:57:17;;;;;;;9.37;6.30;;;10.50;99.90;;;;;;5052820;28;20169;-63
2024/04/01 03:59:43;;;;;;;9.73;4.73;;;10.50;99.90;;;;;;5052489;28;20220;-63
2024/04/01 04:02:08;;;;;;;5.33;4.40;;;10.40;99.90;;;;;;5052653;28;20202;-62
2024/04/01 04:04:35;;;;;;;6.57;4.70;;;10.30;99.90;;;;;;5052589;28;20190;-63
2024/04/01 04:07:01;;;;;;;4.65;4.22;;;10.30;99.90;;;;;;5052772;28;20618;-63
2024/04/01 04:09:27;;;;;;;5.78;3.85;;;10.20;99.90;;;;;;5052301;28;20174;-63
2024/04/01 04:11:53;;;;;;;6.67;4.17;;;10.10;99.90;;;;;;5052548;28;20170;-62
2024/04/01 04:14:20;;;;;;;3.38;3.10;;;10.10;99.90;;;;;;5052431;28;20616;-63
2024/04/01 04:16:46;;;;;;;2.28;1.55;;;10.00;99.90;;;;;;5052370;28;20188;-63
2024/04/01 04:19:13;;;;;;;3.35;1.27;;;9.80;99.90;;;;;;5052178;28;20166;-63
2024/04/01 04:21:38;;;;;;;1.30;1.20;;;9.90;99.90;;;;;;5052363;28;20190;-62
2024/04/01 04:24:04;;;;;;;1.67;1.57;;;10.00;99.90;;;;;;5052340;28;20194;-63
2024/04/01 04:26:30;;;;;;;1.45;0.90;;;9.90;99.90;;;;;;5052372;28;20174;-63
2024/04/01 04:28:56;;;;;;;0.40;0.40;;;9.80;99.90;;;;;;5052148;28;20656;-63
2024/04/01 04:31:22;;;;;;;0.43;0.40;;;9.40;99.90;;;;;;5052051;28;20628;-63
2024/04/01 04:33:48;;;;;;;0.70;0.70;;;9.50;99.90;;;;;;5052148;28;20201;-63
2024/04/01 04:36:14;;;;;;;0.80;0.50;;;9.60;99.90;;;;;;5052185;28;20556;-63
2024/04/01 04:38:39;;;;;;;0.40;0.40;;;9.70;99.90;;;;;;5051885;28;20174;-63
2024/04/01 04:41:05;;;;;;;1.40;0.50;;;9.80;99.90;;;;;;5051909;28;20401;-64
2024/04/01 04:43:31;;;;;;;0.30;0.30;;;9.80;99.90;;;;;;5051897;28;20675;-63
2024/04/01 04:45:59;;;;;;;0.45;0.40;;;9.70;99.90;;;;;;5051955;28;20564;-63
2024/04/01 04:48:25;;;;;;;0.47;0.43;;;9.70;99.90;;;;;;5052024;28;20192;-63
2024/04/01 04:50:51;;;;;;;0.45;0.45;;;9.60;99.90;;;;;;5051808;28;20223;-63
2024/04/01 04:53:17;;;;;;;2.23;0.40;;;9.60;99.90;;;;;;5052198;28;20206;-63
2024/04/01 04:55:43;;;;;;;0.57;0.40;;;9.50;99.90;;;;;;5051231;28;20170;-63
2024/04/01 04:58:11;;;;;;;0.60;0.60;;;9.50;99.90;;;;;;5051736;28;20542;-63
2024/04/01 05:00:37;;;;;;;0.68;0.38;;;9.40;99.90;;;;;;5050935;28;20591;-62
2024/04/01 05:03:05;;;;;;;2.00;0.67;;;9.40;99.90;;;;;;5051236;28;20174;-63
2024/04/01 05:05:31;;;;;;;0.30;0.30;;;9.40;99.90;;;;;;5051676;28;20649;-63
2024/04/01 05:07:57;;;;;;;0.40;0.40;;;9.40;99.90;;;;;;5050998;28;20567;-63
2024/04/01 05:10:23;;;;;;;0.40;0.40;;;9.30;99.90;;;;;;5051522;28;20166;-63
2024/04/01 05:12:48;;;;;;;0.40;0.40;;;9.30;99.90;;;;;;5052817;28;20190;-63
2024/04/01 05:15:14;;;;;;;0.53;0.40;;;10.20;99.90;;;;;;5051567;28;20300;-63
2024/04/01 05:17:39;;;;;;;0.40;0.40;;;9.40;99.90;;;;;;5051295;28;20253;-63
2024/04/01 05:20:05;;;;;;;0.30;0.30;;;9.40;99.90;;;;;;5050930;28;20202;-63
2024/04/01 05:22:32;;;;;;;0.40;0.40;;;9.30;99.90;;;;;;5049951;28;20178;-63
2024/04/01 05:24:57;;;;;;;0.32;0.32;;;9.40;99.90;;;;;;5048496;28;20225;-63
2024/04/01 05:27:23;;;;;;;0.50;0.40;;;9.20;99.90;;;;;;5051028;28;20205;-63
2024/04/01 05:30:03;;;;;;;0.30;0.30;;;9.10;99.90;;;;;;5050989;28;20269;-63
2024/04/01 05:32:34;;;;;;;0.40;0.40;;;9.00;99.90;;;;;;5050034;28;20646;-63
2024/04/01 05:35:02;;;;;;;0.40;0.40;;;8.80;99.90;;;;;;5048735;28;20214;-62
2024/04/01 05:37:29;;;;;;;0.50;0.50;;;8.70;99.90;;;;;;5051044;28;20220;-63
2024/04/01 05:39:57;;;;;;;0.50;0.50;;;8.80;99.90;;;;;;5049697;28;20178;-63
2024/04/01 05:42:23;;;;;;;0.40;0.40;;;8.80;99.90;;;;;;5049904;28;20196;-62
2024/04/01 05:44:48;;;;;;;0.40;0.40;;;8.70;99.90;;;;;;5050992;28;20335;-62
2024/04/01 05:47:14;;;;;;;0.70;0.70;;;8.70;99.90;;;;;;5050858;28;20670;-63
2024/04/01 05:49:40;;;;;;;1.58;0.50;;;8.80;99.90;;;;;;5049594;28;20216;-63
2024/04/01 05:52:06;;;;;;;0.47;0.47;;;8.90;99.90;;;;;;5054199;28;20174;-63
2024/04/01 05:54:33;;;;;;;0.40;0.40;;;9.10;99.90;;;;;;5055054;28;20437;-64
2024/04/01 05:56:59;;;;;;;0.50;0.50;;;9.20;99.90;;;;;;5055095;28;20855;-63
2024/04/01 05:59:26;;;;;;;0.40;0.40;;;9.20;99.90;;;;;;5054868;28;20181;-63
2024/04/01 06:01:52;;;;;;;0.40;0.40;;;9.00;99.90;;;;;;5055182;28;20177;-63
2024/04/01 06:04:24;;;;;;;0.30;0.30;;;9.00;99.90;;;;;;5054977;28;20579;-63
2024/04/01 06:06:51;;;;;;;0.30;0.30;;;9.00;99.90;;;;;;5054839;28;20707;-62
2024/04/01 06:09:17;;;;;;;0.45;0.45;;;9.00;99.90;;;;;;5054644;28;20186;-62
2024/04/01 06:11:42;;;;;;;0.40;0.40;;;8.80;99.90;;;;;;5054543;28;20663;-63
2024/04/01 06:14:09;;;;;;;0.60;0.60;;;9.00;99.90;;;;;;5054886;28;20319;-63
2024/04/01 06:16:36;;;;;;;1.60;0.50;;;9.00;99.90;;;;;;5054450;28;20253;-63
2024/04/01 06:19:02;;;;;;;0.40;0.40;;;9.10;99.90;;;;;;5053730;28;20235;-63
2024/04/01 06:21:29;;;;;;;0.40;0.40;;;9.10;99.90;;;;;;5054183;28;20174;-62
2024/04/01 06:23:55;;;;;;;0.30;0.30;;;9.10;99.90;;;;;;5053583;28;20495;-62
2024/04/01 06:26:21;;;;;;;0.40;0.40;;;9.00;99.90;;;;;;5054458;28;20272;-63
2024/04/01 06:28:48;;;;;;;0.50;0.40;;;9.00;99.90;;;;;;5054651;28;20257;-63
2024/04/01 06:31:15;;;;;;;0.38;0.38;;;9.00;99.90;;;;;;5054334;28;20269;-62
2024/04/01 06:33:41;;;;;;;0.30;0.30;;;9.00;99.90;;;;;;5055276;28;20210;-63
2024/04/01 06:36:07;;;;;;;0.70;0.60;;;9.00;99.90;;;;;;5054452;28;20182;-63
2024/04/01 06:38:33;;;;;;;0.40;0.40;;;8.90;99.90;;;;;;5053583;28;20174;-63
2024/04/01 06:40:59;;;;;;;0.30;0.30;;;8.90;99.90;;;;;;5054141;28;20174;-63
2024/04/01 06:43:25;;;;;;;0.40;0.40;;;9.00;99.90;;;;;;5054104;28;20448;-63
2024/04/01 06:45:57;;;;;;;0.35;0.35;;;9.00;99.90;;;;;;5053768;28;20205;-62
2024/04/01 06:48:23;;;;;;;0.30;0.30;;;9.00;99.90;;;;;;5052999;28;20207;-63
2024/04/01 06:50:49;;;;;;;0.40;0.40;;;9.00;99.90;;;;;;5053411;28;20182;-62
2024/04/01 06:53:17;;;;;;;0.50;0.50;;;9.20;99.90;;;;;;5053723;28;20213;-62
2024/04/01 06:55:46;;;;;;;0.90;0.60;;;9.30;99.90;;;;;;5054098;28;20575;-63
2024/04/01 06:58:12;;;;;;;0.50;0.50;;;9.20;99.90;;;;;;5053953;28;20188;-63
2024/04/01 07:00:38;;;;;;;0.53;0.40;;;9.10;99.90;;;;;;5053828;28;20174;-63
2024/04/01 07:03:05;;;;;;;0.70;0.50;;;8.90;99.90;;;;;;5052718;28;20412;-63
2024/04/01 07:05:31;;;;;;;0.45;0.45;;;8.70;99.90;;;;;;5053480;28;20178;-63
2024/04/01 07:07:58;;;;;;;0.40;0.40;;;8.70;99.90;;;;;;5053936;28;20182;-63
2024/04/01 07:10:24;;;;;;;0.60;0.52;;;8.80;99.90;;;;;;5053710;28;20186;-63
2024/04/01 07:12:50;;;;;;;0.50;0.50;;;8.90;99.90;;;;;;5052935;28;20247;-63
2024/04/01 07:15:16;;;;;;;0.40;0.40;;;9.00;99.90;;;;;;5053717;28;20743;-63
2024/04/01 07:17:43;;;;;;;0.50;0.50;;;9.00;99.90;;;;;;5053624;28;20178;-63
2024/04/01 07:20:12;;;;;;;2.92;1.00;;;9.10;99.90;;;;;;5052786;28;20189;-63
2024/04/01 07:22:39;;;;;;;0.85;0.85;;;9.10;99.90;;;;;;5053131;28;20655;-63
2024/04/01 07:25:05;;;;;;;0.40;0.40;;;9.00;99.70;;;;;;5053074;28;20190;-62
2024/04/01 07:27:34;;;;;;;0.30;0.30;;;8.80;99.90;;;;;;5051904;28;20182;-63
2024/04/01 07:30:05;;;;;;;0.30;0.30;;;8.50;99.90;;;;;;5050043;28;20178;-62
2024/04/01 07:32:34;;;;;;;0.30;0.30;;;8.30;99.90;;;;;;5053102;28;20597;-62
2024/04/01 07:35:01;;;;;;;0.40;0.40;;;8.00;99.90;;;;;;5053263;28;20194;-62
2024/04/01 07:37:26;;;;;;;0.30;0.30;;;8.00;99.90;;;;;;5053373;28;20183;-63
2024/04/01 07:39:55;;;;;;;0.30;0.30;;;8.20;99.90;;;;;;5052740;28;20171;-62
2024/04/01 07:42:21;;;;;;;0.40;0.40;;;8.10;99.90;;;;;;5053245;28;20181;-62
2024/04/01 07:44:49;;;;;;;0.30;0.30;;;8.00;99.90;;;;;;5051990;28;20369;-62
2024/04/01 07:47:14;;;;;;;0.30;0.30;;;7.90;99.90;;;;;;5051254;28;20781;-63
2024/04/01 07:49:40;;;;;;;0.40;0.40;;;7.90;99.90;;;;;;5052555;28;20178;-63
2024/04/01 07:52:07;;;;;;;0.33;0.33;;;8.00;99.90;;;;;;5050917;28;20654;-63
2024/04/01 07:54:33;;;;;;;0.40;0.40;;;8.10;99.90;;;;;;5052253;28;20206;-63
2024/04/01 07:57:02;;;;;;;0.40;0.40;;;8.10;99.90;;;;;;5052224;28;20219;-63
2024/04/01 07:59:31;;;;;;;0.30;0.30;;;8.10;99.90;;;;;;5051843;28;20424;-63
2024/04/01 08:01:57;;;;;;;0.30;0.30;;;8.10;99.90;;;;;;5052542;28;20203;-63
2024/04/01 08:04:23;;;;;;;0.40;0.40;;;8.00;99.90;;;;;;5052825;28;20193;-63
2024/04/01 08:06:49;;;;;;;0.38;0.38;;;7.80;99.90;;;;;;5052818;28;20295;-63
2024/04/01 08:09:15;;;;;;;0.40;0.40;;;7.80;99.90;;;;;;5052362;28;20185;-62
2024/04/01 08:11:41;;;;;;;0.30;0.30;;;7.90;99.90;;;;;;5052671;28;20174;-63
2024/04/01 08:14:06;;;;;;;0.40;0.40;;;7.90;99.90;;;;;;5052100;28;20205;-63
2024/04/01 08:16:32;;;;;;;0.90;0.40;;;7.70;99.90;;;;;;5052419;28;20539;-63
2024/04/01 08:18:58;;;;;;;0.30;0.30;;;7.60;99.90;;;;;;5052350;28;20173;-63
2024/04/01 08:21:23;;;;;;;0.40;0.40;;;7.40;99.90;;;;;;5052465;28;20173;-62
2024/04/01 08:23:49;;;;;;;0.40;0.40;;;7.40;99.90;;;;;;5052387;28;20201;-63
2024/04/01 08:26:15;;;;;;;0.45;0.45;;;7.30;99.90;;;;;;5052408;28;20185;-63
2024/04/01 08:28:41;;;;;;;0.33;0.33;;;7.40;99.90;;;;;;5052176;28;20672;-64
2024/04/01 08:31:06;;;;;;;0.50;0.50;;;7.60;99.90;;;;;;5052033;28;20189;-63
2024/04/01 08:33:32;;;;;;;0.40;0.40;;;7.60;99.90;;;;;;5052216;28;20232;-63
2024/04/01 08:35:58;;;;;;;0.50;0.50;;;7.60;99.90;;;;;;5052556;28;20174;-63
2024/04/01 08:38:24;;;;;;;0.50;0.50;;;7.60;99.90;;;;;;5052121;28;20226;-63
2024/04/01 08:40:58;;;;;;;0.40;0.40;;;7.60;99.90;;;;;;5052058;28;20680;-63
2024/04/01 08:43:34;;;;;;;0.30;0.30;;;7.70;99.90;;;;;;5051870;28;20193;-63
2024/04/01 08:46:02;;;;;;;0.40;0.40;;;7.90;99.90;;;;;;5052026;28;20269;-63
2024/04/01 08:48:31;;;;;;;0.88;0.60;;;8.00;99.90;;;;;;5052028;28;20224;-63
2024/04/01 08:51:02;;;;;;;0.60;0.60;;;8.00;99.70;;;;;;5052041;28;20554;-63
2024/04/01 08:53:52;;;;;;;2.15;0.95;;;7.80;99.90;;;;;;5051839;28;20224;-62
2024/04/01 08:56:19;;;;;;;2.97;2.70;;;7.40;99.90;;;;;;5051960;28;20166;-63
2024/04/01 08:58:48;;;;;;;1.75;1.30;;;7.50;99.90;;;;;;5051735;28;20167;-63
2024/04/01 09:01:13;;;;;;;0.40;0.40;;;7.30;99.90;;;;;;5051778;28;20193;-63
2024/04/01 09:03:39;;;;;;;1.13;1.13;;;7.10;99.90;;;;;;5051705;28;20611;-63
2024/04/01 09:06:05;;;;;;;0.40;0.40;;;7.10;99.90;;;;;;5051930;28;20192;-63
2024/04/01 09:08:31;;;;;;;0.70;0.70;;;7.10;99.90;;;;;;5051522;28;20198;-63
2024/04/01 09:10:57;;;;;;;0.50;0.50;;;7.00;99.90;;;;;;5050398;28;20176;-63
2024/04/01 09:13:23;;;;;;;0.60;0.60;;;6.90;99.90;;;;;;5051653;28;20587;-63
2024/04/01 09:15:49;;;;;;;0.40;0.40;;;6.90;99.90;;;;;;5052753;28;20179;-63
2024/04/01 09:18:16;;;;;;;0.50;0.40;;;6.70;99.90;;;;;;5051758;28;20852;-63
2024/04/01 09:20:42;;;;;;;0.40;0.40;;;6.70;99.90;;;;;;5051330;28;20248;-64
2024/04/01 09:23:08;;;;;;;0.40;0.40;;;6.90;99.90;;;;;;5051519;28;20234;-63
2024/04/01 09:25:34;;;;;;;0.70;0.50;;;7.10;99.90;;;;;;5052061;28;20661;-63
2024/04/01 09:28:00;;;;;;;0.40;0.40;;;7.30;99.90;;;;;;5055725;28;20178;-63
2024/04/01 09:30:26;;;;;;;0.30;0.30;;;7.20;99.90;;;;;;5055635;28;20419;-63
2024/04/01 09:32:52;;;;;;;0.40;0.40;;;6.90;99.90;;;;;;5055563;28;20196;-63
2024/04/01 09:35:18;;;;;;;0.40;0.40;;;6.80;99.90;;;;;;5055627;28;20283;-63
2024/04/01 09:37:44;;;;;;;0.40;0.40;;;6.60;99.90;;;;;;5055374;28;20177;-63
2024/04/01 09:40:10;;;;;;;0.30;0.30;;;6.60;99.90;;;;;;5055426;28;20557;-63
2024/04/01 09:42:37;;;;;;;0.50;0.50;;;6.70;99.90;;;;;;5055625;28;20177;-64
2024/04/01 09:45:04;;;;;;;0.40;0.40;;;6.90;99.90;;;;;;5055255;28;20204;-63
2024/04/01 09:47:31;;;;;;;0.40;0.40;;;6.90;99.90;;;;;;5055393;28;20684;-63
2024/04/01 09:49:59;;;;;;;0.40;0.40;;;6.80;99.90;;;;;;5055034;28;20715;-63
2024/04/01 09:52:25;;;;;;;0.40;0.40;;;6.90;99.90;;;;;;5055164;28;20181;-63
2024/04/01 09:55:00;;;;;;;0.40;0.40;;;6.90;99.90;;;;;;5055137;28;20255;-63
2024/04/01 09:57:35;;;;;;;0.40;0.40;;;6.90;99.90;;;;;;5055138;28;20519;-63
2024/04/01 10:00:22;;;;;;;0.50;0.50;;;7.10;99.90;;;;;;5054938;28;20258;-63
2024/04/01 10:03:37;;;;;;;0.40;0.40;;;7.10;99.90;;;;;;5054957;28;20550;-63
2024/04/01 10:06:39;;;;;;;0.50;0.50;;;7.10;99.90;;;;;;5055773;28;20677;-63
2024/04/01 10:09:32;;;;;;;0.40;0.40;;;6.40;99.90;;;;;;5055012;28;20930;-62
2024/04/01 10:12:24;;;;;;;0.40;0.40;;;6.60;99.90;;;;;;5054824;28;20641;-63
2024/04/01 10:15:15;;;;;;;1.02;0.40;;;6.40;99.90;;;;;;5054925;28;20207;-63
2024/04/01 10:18:21;;;;;;;0.60;0.60;;;6.50;99.90;;;;;;5054770;28;20246;-63
2024/04/01 10:21:09;;;;;;;0.40;0.40;;;6.70;99.90;;;;;;5054142;28;20192;-63
2024/04/01 10:23:57;;;;;;;1.50;1.00;;;6.90;99.90;;;;;;5054545;28;20204;-62
2024/04/01 10:26:34;;;;;;;0.82;0.82;;;7.10;99.90;;;;;;5054630;28;20185;-63
2024/04/01 10:29:24;;;;;;;0.40;0.40;;;7.10;99.90;;;;;;5054450;28;20169;-63
2024/04/01 10:32:01;;;;;;;0.40;0.40;;;7.20;99.90;;;;;;5054457;28;20214;-63
2024/04/01 10:35:04;;;;;;;0.40;0.40;;;7.10;99.90;;;;;;5054413;28;20208;-63
2024/04/01 10:37:50;;;;;;;0.82;0.82;;;6.90;99.90;;;;;;5055015;28;20218;-62
2024/04/01 10:40:22;;;;;;;0.50;0.50;;;6.80;99.90;;;;;;5054591;28;20611;-62
2024/04/01 10:43:32;;;;;;;0.47;0.47;;;6.70;99.90;;;;;;5054284;28;20539;-63
2024/04/01 10:46:10;;;;;;;0.57;0.57;;;6.70;99.90;;;;;;5023231;28;20302;-63
2024/04/01 10:49:14;;;;;;;0.85;0.82;;;7.00;99.90;;;;;;5053983;28;20168;-63
2024/04/01 10:51:53;;;;;;;0.52;0.52;;;6.90;99.90;;;;;;5054077;28;20179;-63
2024/04/01 10:54:20;;;;;;;0.43;0.43;;;6.90;99.90;;;;;;5054199;28;20245;-62
2024/04/01 10:57:05;;;;;;;0.40;0.40;;;6.70;99.90;;;;;;5053933;28;20237;-62
2024/04/01 11:00:08;;;;;;;0.68;0.68;;;6.60;99.90;;;;;;5053681;28;20260;-62
2024/04/01 11:02:56;;;;;;;0.40;0.40;;;6.80;99.90;;;;;;5054380;28;20252;-62
2024/04/01 11:05:49;;;;;;;0.40;0.40;;;7.10;99.90;;;;;;5053946;28;20192;-62
2024/04/01 11:08:24;;;;;;;0.60;0.60;;;6.90;99.90;;;;;;5053923;28;20177;-62
2024/04/01 11:10:57;;;;;;;0.40;0.40;;;7.40;99.90;;;;;;5053730;28;20176;-62
2024/04/01 11:13:23;;;;;;;0.47;0.47;;;7.40;99.70;;;;;;5053501;28;20200;-62
2024/04/01 11:15:55;;;;;;;0.45;0.45;;;7.40;99.80;;;;;;5053640;28;20166;-62
2024/04/01 11:18:26;;;;;;;1.27;0.57;;;7.40;99.90;;;;;;5053703;28;20215;-62
2024/04/01 11:21:22;;;;;;;0.52;0.50;;;7.40;99.90;;;;;;5053782;28;20189;-62
2024/04/01 11:24:03;;;;;;;0.70;0.63;;;7.50;99.90;;;;;;5053383;28;20331;-62
2024/04/01 11:27:23;;;;;;;0.40;0.40;;;7.50;99.90;;;;;;5052864;28;20647;-63
2024/04/01 11:30:00;;;;;;;0.50;0.40;;;7.70;99.90;;;;;;4971686;28;20187;-63
2024/04/01 11:32:33;;;;;;;1.08;0.50;;;7.90;99.80;;;;;;5052258;28;20212;-63
2024/04/01 11:35:08;;;;;;;0.82;0.77;;;8.20;99.90;;;;;;5052414;28;20272;-63
2024/04/01 11:37:39;;;;;;;0.50;0.50;;;8.20;99.90;;;;;;5053266;28;20177;-63
2024/04/01 11:40:08;;;;;;;0.65;0.65;;;8.50;99.90;;;;;;5052816;28;20166;-63
2024/04/01 11:42:39;;;;;;;0.60;0.60;;;8.40;98.10;;;;;;5052962;28;20625;-62
2024/04/01 11:45:09;;;;;;;0.70;0.68;;;8.60;99.90;;;;;;5052912;28;20259;-63
2024/04/01 11:47:39;;;;;;;0.40;0.40;;;8.40;99.90;;;;;;5053105;28;20174;-63
2024/04/01 11:50:22;;;;;;;0.43;0.43;;;8.70;99.90;;;;;;5052073;28;20197;-63
2024/04/01 11:53:02;;;;;;;0.85;0.70;;;8.70;98.40;;;;;;5053096;28;20285;-62
2024/04/01 11:55:29;;;;;;;0.47;0.40;;;8.60;97.50;;;;;;5052718;28;20232;-62
2024/04/01 11:58:06;;;;;;;0.40;0.40;;;8.60;97.60;;;;;;5053660;28;20167;-62
2024/04/01 12:00:32;;;;;;;1.48;0.50;;;8.70;97.80;;;;;;5053255;28;20177;-63
2024/04/01 12:02:58;;;;;;;0.50;0.50;;;8.50;99.90;;;;;;5066302;28;20185;-63
2024/04/01 12:05:24;;;;;;;0.80;0.80;;;8.50;97.80;;;;;;5052670;28;20190;-63
2024/04/01 12:07:50;;;;;;;0.80;0.80;;;8.60;97.90;;;;;;5053628;28;20417;-62
2024/04/01 12:10:17;;;;;;;0.50;0.50;;;8.60;97.90;;;;;;5052316;28;20409;-63
2024/04/01 12:12:46;;;;;;;0.60;0.60;;;8.50;97.40;;;;;;5056441;28;20752;-62
2024/04/01 12:15:17;;;;;;;0.40;0.40;;;8.50;97.70;;;;;;5072299;28;20286;-63
2024/04/01 12:17:43;;;;;;;0.52;0.52;;;8.50;98.20;;;;;;5070399;28;20166;-63
2024/04/01 12:20:10;;;;;;;0.40;0.40;;;8.60;98.00;;;;;;5060251;28;20170;-63
2024/04/01 12:22:37;;;;;;;1.40;0.80;;;8.90;99.90;;;;;;5052573;28;20186;-63
2024/04/01 12:25:04;;;;;;;0.63;0.63;;;8.80;97.40;;;;;;5052203;28;20204;-63
2024/04/01 12:27:32;;;;;;;0.52;0.50;;;9.00;97.20;;;;;;5052596;28;20188;-63
2024/04/01 12:30:00;;;;;;;0.82;0.73;;;9.00;97.10;;;;;;5061267;28;20173;-63
2024/04/01 12:32:27;;;;;;;2.38;1.25;;;8.80;96.90;;;;;;5069180;28;20177;-63
2024/04/01 12:34:54;;;;;;;0.65;0.65;;;8.70;97.60;;;;;;5052048;28;20237;-63
2024/04/01 12:37:23;;;;;;;0.60;0.60;;;8.70;97.40;;;;;;5053524;28;20175;-63
2024/04/01 12:39:52;;;;;;;0.50;0.50;;;8.70;97.50;;;;;;5055574;28;20166;-63
2024/04/01 12:42:18;;;;;;;0.40;0.40;;;8.60;98.90;;;;;;5052115;28;20196;-63
2024/04/01 12:44:45;;;;;;;0.50;0.50;;;9.10;99.90;;;;;;5051629;28;20629;-63
2024/04/01 12:47:13;;;;;;;1.80;0.82;;;8.90;99.90;;;;;;5051368;28;20182;-63
2024/04/01 12:49:41;;;;;;;0.50;0.50;;;9.00;99.90;;;;;;5069440;28;20560;-63
2024/04/01 12:52:08;;;;;;;2.17;0.60;;;9.10;99.90;;;;;;5068814;28;20200;-62
2024/04/01 12:55:26;;;;;;;0.55;0.55;;;9.30;98.80;;;;;;5062954;28;20206;-63
2024/04/01 12:58:27;;;;;;;0.55;0.55;;;9.00;97.20;;;;;;5051405;28;20220;-63
2024/04/01 13:01:09;;;;;;;0.50;0.50;;;9.10;99.90;;;;;;5037055;28;20192;-63
2024/04/01 13:04:05;;;;;;;0.95;0.68;;;9.50;99.90;;;;;;5061796;28;20558;-64